VTSE/CJM METAR and TAF weather

Enter ICAO airport designator
Station Type Date Time Source
VTSE METAR 2024/04/17 11:00 UTC NOAA

VTSE 171100Z 13005KT 9999 FEW020 31/24 Q1006 NOSIG


Station Type Date Time Source
VTSE Decoded METAR 2024/04/17 11:00 UTC NOAA

Station name not available
Apr 17, 2024 - 07:00 AM EDT / 2024.04.17 1100 UTC
Wind: from the SE (130 degrees) at 6 MPH (5 KT):0
Visibility: greater than 7 mile(s):0
Sky conditions: mostly clear
Temperature: 87 F (31 C)
Heat index: 95.7 F (35.4 C):1
Dew Point: 75 F (24 C)
Relative Humidity: 66%
Pressure (altimeter): 29.71 in. Hg (1006 hPa)
ob: VTSE 171100Z 13005KT 9999 FEW020 31/24 Q1006 NOSIG
cycle: 11

Station Type Date Time Source
VTSE TAF 2024/04/17 18:00 UTC NOAA